Winnebago, Illinois
Current Conditions -  °F | °C
As of 10:54 AM on Thursday 30 Oct 2014 (Local Time) from KRFD Reporting Station
Overcast Overcast  
Wind Chill: 40°   Ceiling: 9000
Heat Index: 43°   Visibility: 10mi
Dew Point: 35°   Wind: 5mph
Humidity: 74%   Direction: 200°SSW
Pressure: 30.13"   Gusts: NA
Location:  42.27°N, 89.24°W
Report Text: KRFD 301554Z 20004KT 10SM BKN090 OVC110 06/02 A3013 RMK AO2 SLP210 T00610017
Loading
Personal Weather Stations






























Interactive Weather Map
Tropical Storm Tracking
New forecast layout! Learn more

10-Day Weather Forecast

Advertisements
Track Severe Weather on mobile